KBYI

Burley Municipal Airport

Burley, Idaho, USA
METAR KBYI 161853Z AUTO 20010KT 10SM FEW050 BKN065 05/M01 A3002 RMK AO2 SLP183 T00501006
Observed Flight Rules
Jan-16 @ 18:53 UTC (15 minutes ago) Visual Flight Rules
Wind Visibility Clouds
200° at 10 knots 10 miles
  • Few at 5,000' AGL
  • Broken at 6,500' AGL
Temperatures Readings
Current 5°C / 41°F
Dewpoint -1°C / 30°F
Humidity 66%
Altimeter 30.02" Hg
Pressure 1018.3 hPa
Elevation 1264
METAR KBYI 161853Z AUTO 20010KT 10SM FEW050 BKN065 05/M01 A3002 RMK AO2 SLP183 T00501006
Observed Flight Rules
Jan-16 @ 18:53 UTC
(15 minutes ago)
VFR
Wind Visibility
200° at 10 knots 10 miles
Clouds
  • Few at 5,000' AGL
  • Broken at 6,500' AGL
Temperature Dewpoint
5°C / 41°F -1°C / 30°F
Humidity Altimeter Pressure
66% 30.02" Hg 1018.3 hPa